Rush, Ohio
Current Conditions -  °F | °C
As of 6:53 PM on Friday 31 Oct 2014 (Local Time) from KPHD Reporting Station
Light Rain Light Rain  
Wind Chill: 45°   Ceiling: 2400
Heat Index: 45°   Visibility: 5mi
Dew Point: 42°   Wind: 0mph
Humidity: 90%   Direction: NA
Pressure: 29.88"   Gusts: NA
Location:  40.3767°N, 81.2875°W
Report Text: KPHD 312253Z AUTO 00000KT 5SM -RA BR BKN024 OVC029 07/06 A2988 RMK AO2 SLP122 P0005 T00720056
Loading
Personal Weather Stations






























Interactive Weather Map
Tropical Storm Tracking
New forecast layout! Learn more

10-Day Weather Forecast

Advertisements
Track Severe Weather on mobile